sensor_id;sensor_type;location;lat;lon;timestamp;temperature;humidity
2391;DHT22;22957;50.824;4.360;2023-04-10T00:00:31;13.20;99.50
2391;DHT22;22957;50.824;4.360;2023-04-10T00:02:59;13.70;99.90
2391;DHT22;22957;50.824;4.360;2023-04-10T00:05:28;13.60;99.90
2391;DHT22;22957;50.824;4.360;2023-04-10T00:07:55;13.40;99.90
2391;DHT22;22957;50.824;4.360;2023-04-10T00:10:20;13.50;99.80
2391;DHT22;22957;50.824;4.360;2023-04-10T00:12:46;13.70;99.80
2391;DHT22;22957;50.824;4.360;2023-04-10T00:15:18;13.50;99.90
2391;DHT22;22957;50.824;4.360;2023-04-10T00:17:44;13.50;99.80
2391;DHT22;22957;50.824;4.360;2023-04-10T00:20:15;13.50;99.80
2391;DHT22;22957;50.824;4.360;2023-04-10T00:22:40;13.30;99.90
2391;DHT22;22957;50.824;4.360;2023-04-10T00:25:07;13.00;99.90
2391;DHT22;22957;50.824;4.360;2023-04-10T00:27:33;13.30;99.70
2391;DHT22;22957;50.824;4.360;2023-04-10T00:29:58;13.10;99.90
2391;DHT22;22957;50.824;4.360;2023-04-10T00:32:24;13.20;99.90
2391;DHT22;22957;50.824;4.360;2023-04-10T00:34:49;13.40;99.90
2391;DHT22;22957;50.824;4.360;2023-04-10T00:37:15;13.10;99.90
2391;DHT22;22957;50.824;4.360;2023-04-10T00:39:41;12.70;99.90
2391;DHT22;22957;50.824;4.360;2023-04-10T00:42:08;12.80;99.90
2391;DHT22;22957;50.824;4.360;2023-04-10T00:44:35;12.80;99.90
2391;DHT22;22957;50.824;4.360;2023-04-10T00:47:03;13.00;99.90
2391;DHT22;22957;50.824;4.360;2023-04-10T00:49:30;12.70;99.90
2391;DHT22;22957;50.824;4.360;2023-04-10T00:51:56;12.60;99.90
2391;DHT22;22957;50.824;4.360;2023-04-10T00:54:23;12.60;99.90
2391;DHT22;22957;50.824;4.360;2023-04-10T00:56:49;12.20;99.90
2391;DHT22;22957;50.824;4.360;2023-04-10T00:59:15;12.50;99.90
2391;DHT22;22957;50.824;4.360;2023-04-10T01:01:44;12.40;99.90
2391;DHT22;22957;50.824;4.360;2023-04-10T01:04:10;12.50;99.90
2391;DHT22;22957;50.824;4.360;2023-04-10T01:06:58;12.80;99.90
2391;DHT22;22957;50.824;4.360;2023-04-10T01:15:15;12.20;99.90
2391;DHT22;22957;50.824;4.360;2023-04-10T01:20:23;12.20;99.90
2391;DHT22;22957;50.824;4.360;2023-04-10T01:23:13;12.20;99.90
2391;DHT22;22957;50.824;4.360;2023-04-10T01:25:58;12.20;99.90
2391;DHT22;22957;50.824;4.360;2023-04-10T01:29:00;12.40;99.90
2391;DHT22;22957;50.824;4.360;2023-04-10T01:34:11;12.50;99.90
2391;DHT22;22957;50.824;4.360;2023-04-10T01:36:59;12.60;99.90
2391;DHT22;22957;50.824;4.360;2023-04-10T01:39:38;12.60;99.90
2391;DHT22;22957;50.824;4.360;2023-04-10T01:42:05;12.70;99.90
2391;DHT22;22957;50.824;4.360;2023-04-10T01:44:31;12.30;99.90
2391;DHT22;22957;50.824;4.360;2023-04-10T01:46:59;12.40;99.90
2391;DHT22;22957;50.824;4.360;2023-04-10T01:49:27;12.20;99.60
2391;DHT22;22957;50.824;4.360;2023-04-10T01:51:54;12.40;99.80
2391;DHT22;22957;50.824;4.360;2023-04-10T01:54:27;12.40;99.90
2391;DHT22;22957;50.824;4.360;2023-04-10T01:57:06;12.20;99.70
2391;DHT22;22957;50.824;4.360;2023-04-10T01:59:35;12.20;99.90
2391;DHT22;22957;50.824;4.360;2023-04-10T02:02:02;12.20;99.90
2391;DHT22;22957;50.824;4.360;2023-04-10T02:04:29;12.10;99.50
2391;DHT22;22957;50.824;4.360;2023-04-10T02:07:08;12.40;99.40
2391;DHT22;22957;50.824;4.360;2023-04-10T02:10:01;12.10;99.50
2391;DHT22;22957;50.824;4.360;2023-04-10T02:12:45;12.30;99.50
2391;DHT22;22957;50.824;4.360;2023-04-10T02:15:11;12.60;99.60
2391;DHT22;22957;50.824;4.360;2023-04-10T02:17:37;12.10;99.60
2391;DHT22;22957;50.824;4.360;2023-04-10T02:20:07;12.40;99.70
2391;DHT22;22957;50.824;4.360;2023-04-10T02:22:33;12.40;99.40
2391;DHT22;22957;50.824;4.360;2023-04-10T02:24:59;12.30;99.10
2391;DHT22;22957;50.824;4.360;2023-04-10T02:27:35;12.20;99.30
2391;DHT22;22957;50.824;4.360;2023-04-10T02:30:01;12.40;99.30
2391;DHT22;22957;50.824;4.360;2023-04-10T02:32:31;12.50;99.20
2391;DHT22;22957;50.824;4.360;2023-04-10T02:34:59;12.70;99.30
2391;DHT22;22957;50.824;4.360;2023-04-10T02:37:26;12.30;99.10
2391;DHT22;22957;50.824;4.360;2023-04-10T02:39:53;12.30;99.30
2391;DHT22;22957;50.824;4.360;2023-04-10T02:42:23;12.30;99.30
2391;DHT22;22957;50.824;4.360;2023-04-10T02:44:49;12.60;99.10
2391;DHT22;22957;50.824;4.360;2023-04-10T02:47:14;12.10;99.30
2391;DHT22;22957;50.824;4.360;2023-04-10T02:49:46;12.40;99.00
2391;DHT22;22957;50.824;4.360;2023-04-10T02:52:13;12.60;99.10
2391;DHT22;22957;50.824;4.360;2023-04-10T02:54:42;12.10;98.90
2391;DHT22;22957;50.824;4.360;2023-04-10T02:57:08;12.30;99.10
2391;DHT22;22957;50.824;4.360;2023-04-10T02:59:34;12.20;98.90
2391;DHT22;22957;50.824;4.360;2023-04-10T03:02:00;12.00;99.50
2391;DHT22;22957;50.824;4.360;2023-04-10T03:04:27;12.50;99.40
2391;DHT22;22957;50.824;4.360;2023-04-10T03:06:56;12.20;99.40
2391;DHT22;22957;50.824;4.360;2023-04-10T03:09:21;12.40;99.10
2391;DHT22;22957;50.824;4.360;2023-04-10T03:11:47;12.00;98.90
2391;DHT22;22957;50.824;4.360;2023-04-10T03:14:13;12.10;99.10
2391;DHT22;22957;50.824;4.360;2023-04-10T03:16:40;12.00;99.30
2391;DHT22;22957;50.824;4.360;2023-04-10T03:19:07;12.20;99.30
2391;DHT22;22957;50.824;4.360;2023-04-10T03:21:33;12.00;99.20
2391;DHT22;22957;50.824;4.360;2023-04-10T03:23:58;12.30;99.00
2391;DHT22;22957;50.824;4.360;2023-04-10T03:26:26;12.40;98.60
2391;DHT22;22957;50.824;4.360;2023-04-10T03:28:53;12.40;98.50
2391;DHT22;22957;50.824;4.360;2023-04-10T03:31:20;12.40;98.80
2391;DHT22;22957;50.824;4.360;2023-04-10T03:33:45;12.20;98.70
2391;DHT22;22957;50.824;4.360;2023-04-10T03:36:11;12.50;98.70
2391;DHT22;22957;50.824;4.360;2023-04-10T03:38:38;12.10;98.60
2391;DHT22;22957;50.824;4.360;2023-04-10T03:41:04;12.60;98.90
2391;DHT22;22957;50.824;4.360;2023-04-10T03:43:29;12.30;98.60
2391;DHT22;22957;50.824;4.360;2023-04-10T03:45:57;12.20;98.30
2391;DHT22;22957;50.824;4.360;2023-04-10T03:48:22;12.40;98.50
2391;DHT22;22957;50.824;4.360;2023-04-10T03:50:48;11.90;98.90
2391;DHT22;22957;50.824;4.360;2023-04-10T03:53:14;12.30;98.80
2391;DHT22;22957;50.824;4.360;2023-04-10T03:55:41;12.40;98.00
2391;DHT22;22957;50.824;4.360;2023-04-10T03:58:08;12.20;98.90
2391;DHT22;22957;50.824;4.360;2023-04-10T04:00:33;12.10;98.70
2391;DHT22;22957;50.824;4.360;2023-04-10T04:03:02;12.10;98.60
2391;DHT22;22957;50.824;4.360;2023-04-10T04:05:31;12.20;99.20
2391;DHT22;22957;50.824;4.360;2023-04-10T04:07:57;11.90;98.90
2391;DHT22;22957;50.824;4.360;2023-04-10T04:10:24;12.10;99.00
2391;DHT22;22957;50.824;4.360;2023-04-10T04:12:49;12.00;98.50
2391;DHT22;22957;50.824;4.360;2023-04-10T04:15:15;12.30;98.60
2391;DHT22;22957;50.824;4.360;2023-04-10T04:17:42;12.10;98.50
2391;DHT22;22957;50.824;4.360;2023-04-10T04:20:08;12.40;98.70
2391;DHT22;22957;50.824;4.360;2023-04-10T04:22:34;12.60;98.30
2391;DHT22;22957;50.824;4.360;2023-04-10T04:25:00;12.40;98.00
2391;DHT22;22957;50.824;4.360;2023-04-10T04:27:27;12.40;98.10
2391;DHT22;22957;50.824;4.360;2023-04-10T04:29:53;12.10;98.30
2391;DHT22;22957;50.824;4.360;2023-04-10T04:32:18;12.10;98.30
2391;DHT22;22957;50.824;4.360;2023-04-10T04:34:44;12.20;98.50
2391;DHT22;22957;50.824;4.360;2023-04-10T04:37:10;12.10;98.20
2391;DHT22;22957;50.824;4.360;2023-04-10T04:39:35;12.30;97.90
2391;DHT22;22957;50.824;4.360;2023-04-10T04:42:05;12.20;97.90
2391;DHT22;22957;50.824;4.360;2023-04-10T04:44:32;11.90;98.20
2391;DHT22;22957;50.824;4.360;2023-04-10T04:46:57;12.50;98.00
2391;DHT22;22957;50.824;4.360;2023-04-10T04:49:24;12.40;98.20
2391;DHT22;22957;50.824;4.360;2023-04-10T04:51:50;12.20;97.60
2391;DHT22;22957;50.824;4.360;2023-04-10T04:54:16;12.20;97.80
2391;DHT22;22957;50.824;4.360;2023-04-10T04:56:41;12.30;97.80
2391;DHT22;22957;50.824;4.360;2023-04-10T04:59:07;12.10;98.50
2391;DHT22;22957;50.824;4.360;2023-04-10T05:01:34;12.40;97.80
2391;DHT22;22957;50.824;4.360;2023-04-10T05:04:00;12.50;97.70
2391;DHT22;22957;50.824;4.360;2023-04-10T05:06:25;12.20;97.80
2391;DHT22;22957;50.824;4.360;2023-04-10T05:08:53;12.10;98.00
2391;DHT22;22957;50.824;4.360;2023-04-10T05:11:21;12.20;97.90
2391;DHT22;22957;50.824;4.360;2023-04-10T05:13:49;12.60;97.90
2391;DHT22;22957;50.824;4.360;2023-04-10T05:16:14;12.40;97.90
2391;DHT22;22957;50.824;4.360;2023-04-10T05:18:40;12.30;98.10
2391;DHT22;22957;50.824;4.360;2023-04-10T05:21:07;12.20;98.00
2391;DHT22;22957;50.824;4.360;2023-04-10T05:23:33;11.80;98.20
2391;DHT22;22957;50.824;4.360;2023-04-10T05:25:58;12.00;98.40
2391;DHT22;22957;50.824;4.360;2023-04-10T05:28:24;12.30;98.70
2391;DHT22;22957;50.824;4.360;2023-04-10T05:30:50;12.00;98.30
2391;DHT22;22957;50.824;4.360;2023-04-10T05:33:15;12.60;98.20
2391;DHT22;22957;50.824;4.360;2023-04-10T05:35:42;12.30;97.70
2391;DHT22;22957;50.824;4.360;2023-04-10T05:38:09;12.30;97.70
2391;DHT22;22957;50.824;4.360;2023-04-10T05:40:37;12.30;98.00
2391;DHT22;22957;50.824;4.360;2023-04-10T05:43:05;12.50;98.10
2391;DHT22;22957;50.824;4.360;2023-04-10T05:45:32;12.30;97.90
2391;DHT22;22957;50.824;4.360;2023-04-10T05:48:02;12.30;97.90
2391;DHT22;22957;50.824;4.360;2023-04-10T05:50:28;12.20;97.80
2391;DHT22;22957;50.824;4.360;2023-04-10T05:52:54;12.60;97.50
2391;DHT22;22957;50.824;4.360;2023-04-10T05:55:23;12.50;97.60
2391;DHT22;22957;50.824;4.360;2023-04-10T05:57:48;12.50;97.80
2391;DHT22;22957;50.824;4.360;2023-04-10T06:00:16;12.50;97.70
2391;DHT22;22957;50.824;4.360;2023-04-10T06:02:43;12.50;97.60
2391;DHT22;22957;50.824;4.360;2023-04-10T06:05:10;12.70;97.30
2391;DHT22;22957;50.824;4.360;2023-04-10T06:07:37;12.70;97.40
2391;DHT22;22957;50.824;4.360;2023-04-10T06:10:03;13.00;97.30
2391;DHT22;22957;50.824;4.360;2023-04-10T06:12:29;13.10;96.90
2391;DHT22;22957;50.824;4.360;2023-04-10T06:14:56;13.00;97.30
2391;DHT22;22957;50.824;4.360;2023-04-10T06:17:21;13.00;97.60
2391;DHT22;22957;50.824;4.360;2023-04-10T06:19:49;12.60;97.70
2391;DHT22;22957;50.824;4.360;2023-04-10T06:22:15;12.70;97.30
2391;DHT22;22957;50.824;4.360;2023-04-10T06:24:41;12.90;97.80
2391;DHT22;22957;50.824;4.360;2023-04-10T06:27:07;12.70;97.60
2391;DHT22;22957;50.824;4.360;2023-04-10T06:29:34;12.60;97.40
2391;DHT22;22957;50.824;4.360;2023-04-10T06:32:02;12.70;97.40
2391;DHT22;22957;50.824;4.360;2023-04-10T06:34:27;12.90;97.40
2391;DHT22;22957;50.824;4.360;2023-04-10T06:36:53;13.10;97.30
2391;DHT22;22957;50.824;4.360;2023-04-10T06:39:20;13.00;97.80
2391;DHT22;22957;50.824;4.360;2023-04-10T06:41:49;13.00;97.50
2391;DHT22;22957;50.824;4.360;2023-04-10T06:44:14;13.00;97.40
2391;DHT22;22957;50.824;4.360;2023-04-10T06:46:40;13.20;97.60
2391;DHT22;22957;50.824;4.360;2023-04-10T06:49:06;13.00;97.10
2391;DHT22;22957;50.824;4.360;2023-04-10T06:51:31;13.30;97.80
2391;DHT22;22957;50.824;4.360;2023-04-10T06:53:58;13.20;97.60
2391;DHT22;22957;50.824;4.360;2023-04-10T06:56:25;13.30;97.60
2391;DHT22;22957;50.824;4.360;2023-04-10T06:58:51;13.30;97.80
2391;DHT22;22957;50.824;4.360;2023-04-10T07:01:17;13.10;97.60
2391;DHT22;22957;50.824;4.360;2023-04-10T07:03:43;13.40;97.90
2391;DHT22;22957;50.824;4.360;2023-04-10T07:06:12;13.50;97.70
2391;DHT22;22957;50.824;4.360;2023-04-10T07:08:37;13.00;98.10
2391;DHT22;22957;50.824;4.360;2023-04-10T07:11:05;13.00;98.00
2391;DHT22;22957;50.824;4.360;2023-04-10T07:13:31;13.30;97.90
2391;DHT22;22957;50.824;4.360;2023-04-10T07:16:01;13.80;97.80
2391;DHT22;22957;50.824;4.360;2023-04-10T07:18:28;13.70;98.00
2391;DHT22;22957;50.824;4.360;2023-04-10T07:20:55;13.50;97.60
2391;DHT22;22957;50.824;4.360;2023-04-10T07:23:22;13.40;97.70
2391;DHT22;22957;50.824;4.360;2023-04-10T07:25:58;13.50;98.00
2391;DHT22;22957;50.824;4.360;2023-04-10T07:28:24;13.90;98.10
2391;DHT22;22957;50.824;4.360;2023-04-10T07:30:52;13.80;97.50
2391;DHT22;22957;50.824;4.360;2023-04-10T07:33:17;13.90;97.50
2391;DHT22;22957;50.824;4.360;2023-04-10T07:35:44;13.90;96.90
2391;DHT22;22957;50.824;4.360;2023-04-10T07:38:12;13.90;97.60
2391;DHT22;22957;50.824;4.360;2023-04-10T07:40:42;14.30;97.60
2391;DHT22;22957;50.824;4.360;2023-04-10T07:43:07;14.50;97.50
2391;DHT22;22957;50.824;4.360;2023-04-10T07:45:33;14.20;97.60
2391;DHT22;22957;50.824;4.360;2023-04-10T07:48:00;14.20;97.50
2391;DHT22;22957;50.824;4.360;2023-04-10T07:50:26;14.10;97.50
2391;DHT22;22957;50.824;4.360;2023-04-10T07:52:52;14.30;97.30
2391;DHT22;22957;50.824;4.360;2023-04-10T07:55:18;14.50;97.30
2391;DHT22;22957;50.824;4.360;2023-04-10T07:57:43;14.30;97.00
2391;DHT22;22957;50.824;4.360;2023-04-10T08:00:09;14.60;97.70
2391;DHT22;22957;50.824;4.360;2023-04-10T08:02:35;14.30;97.60
2391;DHT22;22957;50.824;4.360;2023-04-10T08:05:01;14.30;98.20
2391;DHT22;22957;50.824;4.360;2023-04-10T08:07:27;14.10;98.10
2391;DHT22;22957;50.824;4.360;2023-04-10T08:09:54;14.00;98.10
2391;DHT22;22957;50.824;4.360;2023-04-10T08:12:21;14.50;98.10
2391;DHT22;22957;50.824;4.360;2023-04-10T08:14:46;14.80;97.80
2391;DHT22;22957;50.824;4.360;2023-04-10T08:17:12;14.80;97.80
2391;DHT22;22957;50.824;4.360;2023-04-10T08:19:42;15.00;97.60
2391;DHT22;22957;50.824;4.360;2023-04-10T08:22:08;15.30;97.20
2391;DHT22;22957;50.824;4.360;2023-04-10T08:24:34;16.00;97.40
2391;DHT22;22957;50.824;4.360;2023-04-10T08:27:00;15.60;97.00
2391;DHT22;22957;50.824;4.360;2023-04-10T08:29:25;15.40;96.80
2391;DHT22;22957;50.824;4.360;2023-04-10T08:31:51;15.20;97.30
2391;DHT22;22957;50.824;4.360;2023-04-10T08:34:17;15.10;97.20
2391;DHT22;22957;50.824;4.360;2023-04-10T08:36:42;15.40;97.30
2391;DHT22;22957;50.824;4.360;2023-04-10T08:39:08;15.80;97.00
2391;DHT22;22957;50.824;4.360;2023-04-10T08:41:35;15.60;97.20
2391;DHT22;22957;50.824;4.360;2023-04-10T08:44:01;15.70;97.40
2391;DHT22;22957;50.824;4.360;2023-04-10T08:46:28;16.00;97.30
2391;DHT22;22957;50.824;4.360;2023-04-10T08:49:05;16.00;97.20
2391;DHT22;22957;50.824;4.360;2023-04-10T08:51:36;16.20;96.90
2391;DHT22;22957;50.824;4.360;2023-04-10T08:54:10;15.90;97.40
2391;DHT22;22957;50.824;4.360;2023-04-10T08:56:40;15.90;97.10
2391;DHT22;22957;50.824;4.360;2023-04-10T08:59:07;15.90;97.40
2391;DHT22;22957;50.824;4.360;2023-04-10T09:01:35;16.10;97.10
2391;DHT22;22957;50.824;4.360;2023-04-10T09:04:00;15.70;97.60
2391;DHT22;22957;50.824;4.360;2023-04-10T09:06:28;15.60;97.70
2391;DHT22;22957;50.824;4.360;2023-04-10T09:08:53;15.60;97.60
2391;DHT22;22957;50.824;4.360;2023-04-10T09:11:19;16.00;97.60
2391;DHT22;22957;50.824;4.360;2023-04-10T09:13:46;16.40;97.80
2391;DHT22;22957;50.824;4.360;2023-04-10T09:16:14;16.40;97.20
2391;DHT22;22957;50.824;4.360;2023-04-10T09:18:50;16.60;96.80
2391;DHT22;22957;50.824;4.360;2023-04-10T09:21:27;16.10;97.30
2391;DHT22;22957;50.824;4.360;2023-04-10T09:24:00;16.80;97.00
2391;DHT22;22957;50.824;4.360;2023-04-10T09:26:31;16.90;97.00
2391;DHT22;22957;50.824;4.360;2023-04-10T09:29:02;16.40;97.30
2391;DHT22;22957;50.824;4.360;2023-04-10T09:31:37;17.00;97.40
2391;DHT22;22957;50.824;4.360;2023-04-10T09:34:21;16.80;96.60
2391;DHT22;22957;50.824;4.360;2023-04-10T09:36:54;17.00;97.20
2391;DHT22;22957;50.824;4.360;2023-04-10T09:39:38;17.20;97.00
2391;DHT22;22957;50.824;4.360;2023-04-10T09:42:08;17.70;96.70
2391;DHT22;22957;50.824;4.360;2023-04-10T09:44:36;17.80;96.50
2391;DHT22;22957;50.824;4.360;2023-04-10T09:47:19;17.70;96.00
2391;DHT22;22957;50.824;4.360;2023-04-10T09:49:51;17.80;96.50
2391;DHT22;22957;50.824;4.360;2023-04-10T09:52:27;17.60;96.30
2391;DHT22;22957;50.824;4.360;2023-04-10T09:54:56;17.70;96.50
2391;DHT22;22957;50.824;4.360;2023-04-10T09:57:24;17.90;96.60
2391;DHT22;22957;50.824;4.360;2023-04-10T09:59:54;18.40;96.40
2391;DHT22;22957;50.824;4.360;2023-04-10T10:02:22;18.50;95.90
2391;DHT22;22957;50.824;4.360;2023-04-10T10:04:49;18.70;96.40
2391;DHT22;22957;50.824;4.360;2023-04-10T10:07:18;18.80;95.60
2391;DHT22;22957;50.824;4.360;2023-04-10T10:09:46;19.60;95.70
2391;DHT22;22957;50.824;4.360;2023-04-10T10:14:58;20.40;94.90
2391;DHT22;22957;50.824;4.360;2023-04-10T10:17:33;20.90;93.90
2391;DHT22;22957;50.824;4.360;2023-04-10T10:20:06;20.70;93.90
2391;DHT22;22957;50.824;4.360;2023-04-10T10:22:33;20.70;94.20
2391;DHT22;22957;50.824;4.360;2023-04-10T10:25:00;21.20;94.90
2391;DHT22;22957;50.824;4.360;2023-04-10T10:27:28;21.10;95.10
2391;DHT22;22957;50.824;4.360;2023-04-10T10:29:55;21.40;93.70
2391;DHT22;22957;50.824;4.360;2023-04-10T10:32:25;21.60;93.30
2391;DHT22;22957;50.824;4.360;2023-04-10T10:34:52;21.40;93.50
2391;DHT22;22957;50.824;4.360;2023-04-10T10:37:21;21.20;93.40
2391;DHT22;22957;50.824;4.360;2023-04-10T10:45:11;21.70;92.30
2391;DHT22;22957;50.824;4.360;2023-04-10T10:47:47;21.30;92.50
2391;DHT22;22957;50.824;4.360;2023-04-10T10:50:13;21.10;92.20
2391;DHT22;22957;50.824;4.360;2023-04-10T10:52:44;21.20;92.20
2391;DHT22;22957;50.824;4.360;2023-04-10T10:55:27;21.40;92.40
2391;DHT22;22957;50.824;4.360;2023-04-10T10:57:54;21.40;92.20
2391;DHT22;22957;50.824;4.360;2023-04-10T11:00:23;21.60;91.80
2391;DHT22;22957;50.824;4.360;2023-04-10T11:06:02;21.60;91.80
2391;DHT22;22957;50.824;4.360;2023-04-10T11:08:39;21.30;91.90
2391;DHT22;22957;50.824;4.360;2023-04-10T11:11:26;21.50;91.80
2391;DHT22;22957;50.824;4.360;2023-04-10T11:19:10;20.70;92.20
2391;DHT22;22957;50.824;4.360;2023-04-10T11:22:01;21.00;92.30
2391;DHT22;22957;50.824;4.360;2023-04-10T11:24:52;21.20;91.70
2391;DHT22;22957;50.824;4.360;2023-04-10T11:27:41;21.00;91.40
2391;DHT22;22957;50.824;4.360;2023-04-10T11:30:28;21.10;91.40
2391;DHT22;22957;50.824;4.360;2023-04-10T11:32:55;21.20;91.20
2391;DHT22;22957;50.824;4.360;2023-04-10T11:35:21;21.00;91.60
2391;DHT22;22957;50.824;4.360;2023-04-10T11:37:46;20.80;91.90
2391;DHT22;22957;50.824;4.360;2023-04-10T11:40:12;21.20;91.80
2391;DHT22;22957;50.824;4.360;2023-04-10T11:42:38;20.80;91.90
2391;DHT22;22957;50.824;4.360;2023-04-10T11:45:26;20.70;91.70
2391;DHT22;22957;50.824;4.360;2023-04-10T11:47:52;20.40;91.90
2391;DHT22;22957;50.824;4.360;2023-04-10T11:50:19;20.60;92.10
2391;DHT22;22957;50.824;4.360;2023-04-10T11:52:48;20.70;92.30
2391;DHT22;22957;50.824;4.360;2023-04-10T11:55:14;20.70;92.40
2391;DHT22;22957;50.824;4.360;2023-04-10T11:57:41;20.50;92.50
2391;DHT22;22957;50.824;4.360;2023-04-10T12:00:07;20.30;92.50
2391;DHT22;22957;50.824;4.360;2023-04-10T12:02:33;20.30;92.60
2391;DHT22;22957;50.824;4.360;2023-04-10T12:04:58;20.50;92.60
2391;DHT22;22957;50.824;4.360;2023-04-10T12:07:25;20.40;92.50
2391;DHT22;22957;50.824;4.360;2023-04-10T12:09:56;20.10;92.90
2391;DHT22;22957;50.824;4.360;2023-04-10T12:12:34;20.30;92.90
2391;DHT22;22957;50.824;4.360;2023-04-10T12:15:01;20.60;92.80
2391;DHT22;22957;50.824;4.360;2023-04-10T12:17:27;20.20;92.80
2391;DHT22;22957;50.824;4.360;2023-04-10T12:19:53;20.40;92.70
2391;DHT22;22957;50.824;4.360;2023-04-10T12:22:19;20.60;92.40
2391;DHT22;22957;50.824;4.360;2023-04-10T12:24:50;20.30;92.40
2391;DHT22;22957;50.824;4.360;2023-04-10T12:27:27;19.80;92.50
2391;DHT22;22957;50.824;4.360;2023-04-10T12:29:56;20.00;92.20
2391;DHT22;22957;50.824;4.360;2023-04-10T12:32:24;19.90;92.40
2391;DHT22;22957;50.824;4.360;2023-04-10T12:34:55;20.20;92.10
2391;DHT22;22957;50.824;4.360;2023-04-10T12:37:23;19.80;92.30
2391;DHT22;22957;50.824;4.360;2023-04-10T12:39:49;20.10;92.10
2391;DHT22;22957;50.824;4.360;2023-04-10T12:42:21;20.10;92.20
2391;DHT22;22957;50.824;4.360;2023-04-10T12:44:50;19.80;92.50
2391;DHT22;22957;50.824;4.360;2023-04-10T12:47:16;20.00;93.30
2391;DHT22;22957;50.824;4.360;2023-04-10T12:49:41;19.50;94.80
2391;DHT22;22957;50.824;4.360;2023-04-10T12:52:07;19.30;96.10
2391;DHT22;22957;50.824;4.360;2023-04-10T12:54:34;19.00;97.10
2391;DHT22;22957;50.824;4.360;2023-04-10T12:57:01;18.60;97.40
2391;DHT22;22957;50.824;4.360;2023-04-10T12:59:31;18.20;99.00
2391;DHT22;22957;50.824;4.360;2023-04-10T13:01:57;18.30;99.60
2391;DHT22;22957;50.824;4.360;2023-04-10T13:04:29;17.80;99.90
2391;DHT22;22957;50.824;4.360;2023-04-10T13:06:56;17.80;99.90
2391;DHT22;22957;50.824;4.360;2023-04-10T13:09:22;18.10;99.90
2391;DHT22;22957;50.824;4.360;2023-04-10T13:11:50;17.90;99.90
2391;DHT22;22957;50.824;4.360;2023-04-10T13:14:16;18.10;99.90
2391;DHT22;22957;50.824;4.360;2023-04-10T13:16:42;18.20;99.90
2391;DHT22;22957;50.824;4.360;2023-04-10T13:19:08;17.90;99.90
2391;DHT22;22957;50.824;4.360;2023-04-10T13:21:34;18.10;99.90
2391;DHT22;22957;50.824;4.360;2023-04-10T13:24:00;18.10;99.90
2391;DHT22;22957;50.824;4.360;2023-04-10T13:26:26;17.70;99.90
2391;DHT22;22957;50.824;4.360;2023-04-10T13:28:51;17.70;99.90
2391;DHT22;22957;50.824;4.360;2023-04-10T13:31:17;17.80;99.90
2391;DHT22;22957;50.824;4.360;2023-04-10T13:33:46;17.80;99.70
2391;DHT22;22957;50.824;4.360;2023-04-10T13:36:13;17.90;99.90
2391;DHT22;22957;50.824;4.360;2023-04-10T13:38:40;17.90;99.90
2391;DHT22;22957;50.824;4.360;2023-04-10T13:41:07;18.10;99.90
2391;DHT22;22957;50.824;4.360;2023-04-10T13:43:33;18.20;99.70
2391;DHT22;22957;50.824;4.360;2023-04-10T13:45:58;18.20;99.30
2391;DHT22;22957;50.824;4.360;2023-04-10T13:48:24;18.40;98.80
2391;DHT22;22957;50.824;4.360;2023-04-10T13:50:49;18.60;98.60
2391;DHT22;22957;50.824;4.360;2023-04-10T13:53:15;18.80;98.60
2391;DHT22;22957;50.824;4.360;2023-04-10T13:55:41;18.90;98.20
2391;DHT22;22957;50.824;4.360;2023-04-10T13:58:09;18.90;97.70
2391;DHT22;22957;50.824;4.360;2023-04-10T14:00:36;18.90;98.20
2391;DHT22;22957;50.824;4.360;2023-04-10T14:03:03;19.00;97.50
2391;DHT22;22957;50.824;4.360;2023-04-10T14:05:29;19.10;96.80
2391;DHT22;22957;50.824;4.360;2023-04-10T14:07:55;19.00;97.10
2391;DHT22;22957;50.824;4.360;2023-04-10T14:10:22;19.30;97.20
2391;DHT22;22957;50.824;4.360;2023-04-10T14:12:48;19.40;96.90
2391;DHT22;22957;50.824;4.360;2023-04-10T14:15:13;19.70;97.60
2391;DHT22;22957;50.824;4.360;2023-04-10T14:17:41;19.40;98.10
2391;DHT22;22957;50.824;4.360;2023-04-10T14:20:08;19.40;97.60
2391;DHT22;22957;50.824;4.360;2023-04-10T14:22:39;19.40;97.40
2391;DHT22;22957;50.824;4.360;2023-04-10T14:25:06;19.60;97.20
2391;DHT22;22957;50.824;4.360;2023-04-10T14:27:34;19.60;97.00
2391;DHT22;22957;50.824;4.360;2023-04-10T14:30:01;19.40;97.10
2391;DHT22;22957;50.824;4.360;2023-04-10T14:32:27;19.40;97.20
2391;DHT22;22957;50.824;4.360;2023-04-10T14:34:54;19.40;97.60
2391;DHT22;22957;50.824;4.360;2023-04-10T14:37:19;19.10;98.50
2391;DHT22;22957;50.824;4.360;2023-04-10T14:39:48;18.90;99.50
2391;DHT22;22957;50.824;4.360;2023-04-10T14:42:14;18.60;99.90
2391;DHT22;22957;50.824;4.360;2023-04-10T14:44:39;18.10;99.90
2391;DHT22;22957;50.824;4.360;2023-04-10T14:47:06;17.60;99.90
2391;DHT22;22957;50.824;4.360;2023-04-10T14:49:33;17.30;99.90
2391;DHT22;22957;50.824;4.360;2023-04-10T14:52:02;16.90;99.90
2391;DHT22;22957;50.824;4.360;2023-04-10T14:54:27;17.50;99.90
2391;DHT22;22957;50.824;4.360;2023-04-10T14:56:53;16.80;99.90
2391;DHT22;22957;50.824;4.360;2023-04-10T14:59:18;16.20;99.90
2391;DHT22;22957;50.824;4.360;2023-04-10T15:01:44;16.10;99.90
2391;DHT22;22957;50.824;4.360;2023-04-10T15:04:10;16.00;99.90
2391;DHT22;22957;50.824;4.360;2023-04-10T15:06:39;15.70;99.90
2391;DHT22;22957;50.824;4.360;2023-04-10T15:09:04;15.90;99.90
2391;DHT22;22957;50.824;4.360;2023-04-10T15:11:30;15.70;99.90
2391;DHT22;22957;50.824;4.360;2023-04-10T15:13:58;15.80;99.90
2391;DHT22;22957;50.824;4.360;2023-04-10T15:16:33;16.00;99.90
2391;DHT22;22957;50.824;4.360;2023-04-10T15:18:59;16.10;99.90
2391;DHT22;22957;50.824;4.360;2023-04-10T15:21:26;16.20;99.90
2391;DHT22;22957;50.824;4.360;2023-04-10T15:23:52;15.90;99.90
2391;DHT22;22957;50.824;4.360;2023-04-10T15:26:19;15.80;99.90
2391;DHT22;22957;50.824;4.360;2023-04-10T15:28:46;15.90;99.90
2391;DHT22;22957;50.824;4.360;2023-04-10T15:31:12;16.00;99.90
2391;DHT22;22957;50.824;4.360;2023-04-10T15:33:37;15.50;99.90
2391;DHT22;22957;50.824;4.360;2023-04-10T15:36:05;15.30;99.90
2391;DHT22;22957;50.824;4.360;2023-04-10T15:38:38;15.50;99.90
2391;DHT22;22957;50.824;4.360;2023-04-10T15:41:08;15.30;99.90
2391;DHT22;22957;50.824;4.360;2023-04-10T15:43:39;15.10;99.90
2391;DHT22;22957;50.824;4.360;2023-04-10T15:46:07;15.10;99.90
2391;DHT22;22957;50.824;4.360;2023-04-10T15:48:32;14.90;99.90
2391;DHT22;22957;50.824;4.360;2023-04-10T15:51:02;14.60;99.90
2391;DHT22;22957;50.824;4.360;2023-04-10T15:53:28;14.90;99.90
2391;DHT22;22957;50.824;4.360;2023-04-10T15:55:54;14.70;99.90
2391;DHT22;22957;50.824;4.360;2023-04-10T15:58:20;14.60;99.90
2391;DHT22;22957;50.824;4.360;2023-04-10T16:00:46;14.70;99.90
2391;DHT22;22957;50.824;4.360;2023-04-10T16:03:12;14.40;99.90
2391;DHT22;22957;50.824;4.360;2023-04-10T16:05:38;14.30;99.90
2391;DHT22;22957;50.824;4.360;2023-04-10T16:08:05;14.50;99.90
2391;DHT22;22957;50.824;4.360;2023-04-10T16:10:31;14.30;99.90
2391;DHT22;22957;50.824;4.360;2023-04-10T16:12:57;13.90;99.90
2391;DHT22;22957;50.824;4.360;2023-04-10T16:15:29;13.70;99.90
2391;DHT22;22957;50.824;4.360;2023-04-10T16:17:56;13.80;99.90